Flag for Australia

Past Weather in 33°55'00"S, 151°10'00"E, Australia — Yesterday and Last 2 Weeks

Currently: 73 °F. Broken clouds. (Weather station: Sydney Airport, Australia). See more current weather

Past Weather in 33°55'00"S, 151°10'00"E — Graph

°F

33°55'00"S, 151°10'00"E Temperature Yesterday

Maximum temperature yesterday: 91 °F (at 12:30 pm)
Minimum temperature yesterday: 73 °F (at 5:00 am)
Average temperature yesterday: 82 °F

High & Low Weather Summary for the Past Weeks

 TemperatureHumidityPressure
High100 °F (Feb 23, 3:30 pm)100% (Feb 16, 2:37 am)30.18 "Hg (Feb 16, 2:37 am)
Low61 °F (Feb 25, 5:30 am)29% (Feb 23, 2:30 pm)29.65 "Hg (Feb 23, 2:30 pm)
Average74 °F80%30.01 "Hg
* Reported Feb 15 8:00 am — Mar 1 8:00 am, 33°55'00"S, 151°10'00"E. Weather by CustomWeather, © 2024

Note: Actual official high and low records may vary slightly from our data, if they occured in-between our weather recording intervals... More about our weather records

33°55'00"S, 151°10'00"E Weather History for the Previous 24 Hours

Scroll right to see more
 ConditionsComfort  
Time TempWeatherWind HumidityBarometerVisibility
8:00 am
Fri, Mar 1
72 °FBroken clouds.6 mph88%29.98 "HgN/A
7:30 am72 °FPartly sunny.6 mph88%29.98 "Hg6 mi
7:00 am72 °FPartly sunny.7 mph88%29.98 "Hg6 mi
6:30 am72 °FPassing clouds.9 mph94%29.98 "Hg6 mi
6:14 am72 °FPassing clouds.10 mph94%29.98 "Hg6 mi
5:49 am72 °FPartly cloudy.12 mph94%29.95 "Hg6 mi
5:30 am72 °FScattered showers. Passing clouds.12 mph94%29.95 "HgN/A
5:08 am72 °FPassing clouds.13 mph94%29.95 "Hg6 mi
5:00 am72 °FPassing clouds.12 mph94%29.95 "Hg6 mi
4:30 am72 °FSprinkles. Passing clouds.10 mph88%29.98 "Hg5 mi
4:18 am72 °FRain showers. Mostly cloudy.10 mph88%29.98 "Hg4 mi
4:00 am72 °FPassing clouds.7 mph88%29.98 "HgN/A
3:30 am73 °FSprinkles. Passing clouds.9 mph89%29.98 "Hg6 mi
3:00 am73 °FSprinkles. Passing clouds.10 mph89%29.98 "Hg6 mi
2:30 am73 °FPassing clouds.10 mph89%30.01 "Hg6 mi
2:23 am73 °FPassing clouds.13 mph89%30.01 "Hg5 mi
1:00 am73 °FOvercast.26 mph89%30.01 "Hg4 mi
12:35 am73 °FPassing clouds.20 mph89%29.98 "Hg4 mi
12:00 am73 °FSprinkles. Passing clouds.22 mph89%29.98 "Hg4 mi
11:30 pm
Thu, Feb 29
73 °FClear.21 mph89%30.01 "Hg4 mi
11:00 pm73 °FPassing clouds.26 mph89%29.98 "Hg4 mi
10:30 pm73 °FPassing clouds.25 mph89%29.98 "Hg4 mi
10:00 pm73 °FScattered showers. Passing clouds.22 mph89%29.95 "Hg4 mi
9:30 pm75 °FClear.28 mph83%29.95 "Hg5 mi
9:06 pm82 °FScattered showers. Clear.17 mph66%29.92 "HgN/A
8:30 pm86 °FClear.6 mph62%29.89 "Hg10 mi
8:00 pm86 °FPassing clouds.7 mph62%29.86 "HgN/A
7:30 pm88 °FDrizzle. Broken clouds.16 mph62%29.86 "HgN/A
7:00 pm86 °FPartly sunny.10 mph62%29.86 "HgN/A
6:30 pm88 °FPartly sunny.13 mph59%29.83 "HgN/A
6:00 pm88 °FSunny.13 mph55%29.83 "Hg10 mi
5:30 pm90 °FSunny.10 mph55%29.83 "Hg10 mi
5:00 pm90 °FSunny.10 mph55%29.83 "Hg10 mi
4:30 pm88 °FSunny.10 mph59%29.83 "Hg10 mi
3:30 pm91 °FSunny.10 mph56%29.83 "Hg10 mi
3:00 pm90 °FSunny.13 mph55%29.83 "Hg10 mi
2:30 pm91 °FSunny.13 mph52%29.86 "Hg10 mi
2:00 pm91 °FSunny.15 mph52%29.86 "Hg10 mi
1:30 pm91 °FSunny.12 mph52%29.86 "Hg10 mi
12:30 pm91 °FSunny.10 mph56%29.86 "Hg10 mi
12:00 pm90 °FSunny.10 mph55%29.89 "Hg10 mi
11:30 am88 °FSunny.9 mph59%29.89 "Hg10 mi
11:00 am90 °FSunny.8 mph55%29.89 "Hg10 mi
10:30 am86 °FSunny.8 mph59%29.89 "Hg10 mi
10:00 am88 °FSunny.8 mph59%29.92 "Hg10 mi
9:30 am84 °FSunny.8 mph66%29.92 "Hg10 mi
9:00 am82 °FSunny.10 mph70%29.92 "Hg10 mi
Weather by CustomWeather, © 2024

See weather overview